悲願の合格!!

LUXURY FLIGHT

03-6423-7371

羽田本店:東京都大田区羽田5-11-1
営業時間:10:00~20:00
定休日:毎週 月曜日
セントレア店:愛知県常滑市セントレア1-1
営業時間:10:00~20:00 年中無休

lv

悲願の合格!!

STAFF BLOG

2019/06/28 悲願の合格!!

きょんばんはーーーー

 

東京羽田、本日のMETARは…

 

RJTT 280730Z 18013KT 9999 FEW030 SCT110 BKN130 28/23 Q0999

NOSIG RMK 1CU030 4AC110 7AC130 A2952

 

少々古い情報にはなりますが・・・笑

 

img_1955

日差しは落ち着きましたが、なかなかの湿度を誇っております

 

さてさて、本日は毎回遠方から来てくださっているFO訓練生のY様。

 

今年に入ってFO訓練を開始したのですが、

 

元々のセンスがあったのである意味、トントン拍子にステップアップされていま…した。(笑)

 

というのも、ご存知の方も多いと思いますが、

 

弊社のFO訓練は生半可な気持ちでは継続が困難と言われています、ちまたでは・・・

 

エアラインの教官を勤めていた当店スタッフが、初めてFO訓練の様子を見た際に、

 

ボソッと一言、「要求されているレベルがエアラインパイロットとほとんど一緒(笑)」

 

と笑っていた事もあります。

 

従いまして、センスはもちろん、精度の高い技量も要求されるのはいうまでもないですが、

 

でも一番要求されるのは向上心や、何事にも動じない強い精神力が要求されます。

 

そこには失敗の受け止め方、上手くいかない時のマインドセットなど、

 

日常や日々お仕事にも置き換えができる内容も多くあります。

 

Y様が苦労されていたのはまさにその部分で、

 

練習ではビッタビタに止まる飛行機の動きも、いざ科目の審査となると緊張が出て、無駄に力が入ってしまい…

 

普段のポテンシャルがなかなか引き出せずに、何度も審査が残念な結果となっておりました。

 

そんな状況を打破すべく、必死に取り組まれたのはイメトレと、ご自宅でのコツコツとした練習だったそうです。

 

電車に乗っている最中でも、「学びの時間」と捉え、徹底的に基本の動きをイメトレする…

 

その努力の結果、

 

 

見事合格!!!!

 

審査を担当したスタッフ、後ろで見守る私も納得のフライトでした。

 

そして、試験終了と同時に笑みがこぼれるY様。

 

地道で厳しい道を登ってきたからこそ、結果は二の次で出来る事をやりきった「漢」の表情がそこにありました。

 

3人で合格の瞬間を共有できた事、心から嬉しく思います。

 

img_1952

まだまだF/O訓練は続きます。

 

これからも共にがんばりましょうーーーー

そして、共に楽しみましょーーーーー

 

 

いつも本当にありがとうございます。

 

 

「感謝」

TOP